createdAt,value
2022-10-12T00:01:11.195Z,86.50
2022-10-12T00:03:39.706Z,87.10
2022-10-12T00:06:11.376Z,87.00
2022-10-12T00:08:41.237Z,87.10
2022-10-12T00:11:13.434Z,86.60
2022-10-12T00:13:41.669Z,85.90
2022-10-12T00:16:13.984Z,85.90
2022-10-12T00:18:42.621Z,86.10
2022-10-12T00:21:13.536Z,86.60
2022-10-12T00:23:43.014Z,87.10
2022-10-12T00:26:15.361Z,87.70
2022-10-12T00:28:44.137Z,87.20
2022-10-12T00:31:16.917Z,87.20
2022-10-12T00:33:46.178Z,87.30
2022-10-12T00:36:18.543Z,87.10
2022-10-12T00:38:47.547Z,87.10
2022-10-12T00:41:18.377Z,87.10
2022-10-12T00:43:50.962Z,87.60
2022-10-12T00:46:29.340Z,87.70
2022-10-12T00:49:07.989Z,88.30
2022-10-12T00:51:36.363Z,88.00
2022-10-12T00:54:11.553Z,88.20
2022-10-12T00:56:43.411Z,88.30
2022-10-12T00:59:19.019Z,88.50
2022-10-12T01:01:48.830Z,88.70
2022-10-12T01:04:17.307Z,88.60
2022-10-12T01:06:45.586Z,88.30
2022-10-12T01:09:14.345Z,88.00
2022-10-12T01:11:42.534Z,88.40
2022-10-12T01:14:10.833Z,88.50
2022-10-12T01:16:45.151Z,88.60
2022-10-12T01:19:39.766Z,88.50
2022-10-12T01:22:11.792Z,88.80
2022-10-12T01:24:52.791Z,88.60
2022-10-12T01:27:37.465Z,88.40
2022-10-12T01:30:21.895Z,88.70
2022-10-12T01:33:17.485Z,88.80
2022-10-12T01:35:55.790Z,88.70
2022-10-12T01:38:35.642Z,88.60
2022-10-12T01:41:12.038Z,88.70
2022-10-12T01:43:43.441Z,88.80
2022-10-12T01:46:47.488Z,88.70
2022-10-12T01:49:18.925Z,88.20
2022-10-12T01:52:20.518Z,87.90
2022-10-12T01:55:07.119Z,87.80
2022-10-12T01:57:48.545Z,88.50
2022-10-12T02:00:18.760Z,88.90
2022-10-12T02:02:59.570Z,89.00
2022-10-12T02:05:38.418Z,89.30
2022-10-12T02:08:15.782Z,89.50
2022-10-12T02:10:50.742Z,89.60
2022-10-12T02:13:21.701Z,89.30
2022-10-12T02:15:51.234Z,89.20
2022-10-12T02:18:22.771Z,89.10
2022-10-12T02:20:54.993Z,89.00
2022-10-12T02:23:25.292Z,88.60
2022-10-12T02:25:54.974Z,89.00
2022-10-12T02:28:27.062Z,88.60
2022-10-12T02:31:02.128Z,88.40
2022-10-12T02:33:37.942Z,89.00
2022-10-12T02:36:13.170Z,89.20
2022-10-12T02:38:49.115Z,88.70
2022-10-12T02:41:22.404Z,88.60
2022-10-12T02:43:56.147Z,89.00
2022-10-12T02:46:27.173Z,88.80
2022-10-12T02:48:59.092Z,89.10
2022-10-12T02:51:29.463Z,89.60
2022-10-12T02:53:58.256Z,89.20
2022-10-12T02:56:26.488Z,89.20
2022-10-12T02:58:54.947Z,89.10
2022-10-12T03:01:23.496Z,89.30
2022-10-12T03:03:51.830Z,89.20
2022-10-12T03:06:21.514Z,89.00
2022-10-12T03:08:49.726Z,88.60
2022-10-12T03:11:17.972Z,88.60
2022-10-12T03:13:46.252Z,88.60
2022-10-12T03:16:14.511Z,88.50
2022-10-12T03:18:42.785Z,88.80
2022-10-12T03:21:11.671Z,88.90
2022-10-12T03:23:41.504Z,88.80
2022-10-12T03:26:10.129Z,89.00
2022-10-12T03:28:38.454Z,88.80
2022-10-12T03:31:06.932Z,89.00
2022-10-12T03:33:35.250Z,88.30
2022-10-12T03:36:03.789Z,87.90
2022-10-12T03:38:31.963Z,87.80
2022-10-12T03:41:06.469Z,88.10
2022-10-12T03:43:36.114Z,88.20
2022-10-12T03:46:04.455Z,88.40
2022-10-12T03:48:32.788Z,88.40
2022-10-12T03:51:01.059Z,88.20
2022-10-12T03:53:29.311Z,88.00
2022-10-12T03:55:57.528Z,88.20
2022-10-12T03:58:27.168Z,88.30
2022-10-12T04:00:56.035Z,88.20
2022-10-12T04:03:24.261Z,88.20
2022-10-12T04:05:56.466Z,88.30
2022-10-12T04:08:26.754Z,88.50
2022-10-12T04:10:56.155Z,88.80
2022-10-12T04:13:24.426Z,88.30
2022-10-12T04:15:54.020Z,88.30
2022-10-12T04:18:22.321Z,88.60
2022-10-12T04:20:51.033Z,88.70
2022-10-12T04:23:19.307Z,88.50
2022-10-12T04:25:48.025Z,88.70
2022-10-12T04:28:16.314Z,88.70
2022-10-12T04:30:46.064Z,88.90
2022-10-12T04:33:15.747Z,89.10
2022-10-12T04:35:43.982Z,89.30
2022-10-12T04:38:13.067Z,89.00
2022-10-12T04:40:41.427Z,88.80
2022-10-12T04:43:09.721Z,88.80
2022-10-12T04:45:37.926Z,88.80
2022-10-12T04:48:06.504Z,89.00
2022-10-12T04:50:36.506Z,88.00
2022-10-12T04:53:07.174Z,88.10
2022-10-12T04:55:36.969Z,88.50
2022-10-12T04:58:10.024Z,88.50
2022-10-12T05:00:38.321Z,88.10
2022-10-12T05:03:07.177Z,88.50
2022-10-12T05:05:37.261Z,88.10
2022-10-12T05:08:06.464Z,87.50
2022-10-12T05:10:34.744Z,87.90
2022-10-12T05:13:02.985Z,88.30
2022-10-12T05:15:31.224Z,88.00
2022-10-12T05:17:59.498Z,88.30
2022-10-12T05:20:27.789Z,88.20
2022-10-12T05:22:58.452Z,87.80
2022-10-12T05:25:29.289Z,88.20
2022-10-12T05:27:57.868Z,88.50
2022-10-12T05:30:26.290Z,88.60
2022-10-12T05:32:54.545Z,88.90
2022-10-12T05:35:22.823Z,89.00
2022-10-12T05:37:51.074Z,88.80
2022-10-12T05:40:20.904Z,89.30
2022-10-12T05:42:49.125Z,89.30
2022-10-12T05:45:17.912Z,88.80
2022-10-12T05:47:46.269Z,88.70
2022-10-12T05:50:14.571Z,88.90
2022-10-12T05:52:42.772Z,88.80
2022-10-12T05:55:11.286Z,89.10
2022-10-12T05:57:41.848Z,89.30
2022-10-12T06:00:11.341Z,89.30
2022-10-12T06:02:40.104Z,89.30
2022-10-12T06:05:09.137Z,89.50
2022-10-12T06:07:37.360Z,89.30
2022-10-12T06:10:07.038Z,89.40
2022-10-12T06:12:35.322Z,89.60
2022-10-12T06:15:05.825Z,89.60
2022-10-12T06:17:34.741Z,89.50
2022-10-12T06:20:02.969Z,89.60
2022-10-12T06:22:31.242Z,89.40
2022-10-12T06:24:59.680Z,89.20
2022-10-12T06:27:28.023Z,89.40
2022-10-12T06:29:56.322Z,89.50
2022-10-12T06:32:25.991Z,89.80
2022-10-12T06:34:54.271Z,90.10
2022-10-12T06:37:48.096Z,90.60
2022-10-12T06:40:12.572Z,90.90
2022-10-12T06:42:41.010Z,91.00
2022-10-12T06:45:10.573Z,91.30
2022-10-12T06:47:40.327Z,91.10
2022-10-12T06:50:10.534Z,91.40
2022-10-12T06:52:39.498Z,91.60
2022-10-12T06:55:09.746Z,91.40
2022-10-12T06:57:38.340Z,91.40
2022-10-12T07:00:08.884Z,91.40
2022-10-12T07:02:39.589Z,91.40
2022-10-12T07:05:09.248Z,91.10
2022-10-12T07:07:38.826Z,91.10
2022-10-12T07:10:08.707Z,91.10
2022-10-12T07:12:38.065Z,91.00
2022-10-12T07:15:08.571Z,91.10
2022-10-12T07:17:37.398Z,91.00
2022-10-12T07:20:08.689Z,91.00
2022-10-12T07:22:36.992Z,90.90
2022-10-12T07:25:06.296Z,90.90
2022-10-12T07:27:34.525Z,90.70
2022-10-12T07:30:03.311Z,90.90
2022-10-12T07:32:31.609Z,91.00
2022-10-12T07:34:59.905Z,90.60
2022-10-12T07:37:29.515Z,90.70
2022-10-12T07:39:57.920Z,90.50
2022-10-12T07:42:26.338Z,90.40
2022-10-12T07:44:54.640Z,90.10
2022-10-12T07:47:22.856Z,89.70
2022-10-12T07:49:51.166Z,89.50
2022-10-12T07:52:19.482Z,89.30
2022-10-12T07:54:49.127Z,89.20
2022-10-12T07:57:17.414Z,89.00
2022-10-12T07:59:45.688Z,89.10
2022-10-12T08:02:14.186Z,89.30
2022-10-12T08:04:42.464Z,88.80
2022-10-12T08:07:10.840Z,88.30
2022-10-12T08:09:39.024Z,88.20
2022-10-12T08:12:11.514Z,87.50
2022-10-12T08:14:40.488Z,87.40
2022-10-12T08:17:09.868Z,87.00
2022-10-12T08:19:38.083Z,86.80
2022-10-12T08:22:06.394Z,86.00
2022-10-12T08:24:36.882Z,85.80
2022-10-12T08:27:05.396Z,85.10
2022-10-12T08:29:35.069Z,85.40
2022-10-12T08:32:03.351Z,84.10
2022-10-12T08:34:31.929Z,84.00
2022-10-12T08:37:00.631Z,83.40
2022-10-12T08:39:28.983Z,83.40
2022-10-12T08:42:12.200Z,83.20
2022-10-12T08:45:21.169Z,82.60
2022-10-12T08:47:54.468Z,82.50
2022-10-12T08:50:32.286Z,82.40
2022-10-12T08:53:06.797Z,82.50
2022-10-12T08:55:42.232Z,82.00
2022-10-12T08:58:18.530Z,82.30
2022-10-12T09:00:50.731Z,82.10
2022-10-12T09:03:35.524Z,82.40
2022-10-12T09:06:12.739Z,82.20
2022-10-12T09:08:59.903Z,82.90
2022-10-12T09:11:47.287Z,81.50
2022-10-12T09:14:20.739Z,80.70
2022-10-12T09:16:52.698Z,80.20
2022-10-12T09:19:23.304Z,80.90
2022-10-12T09:21:54.519Z,80.70
2022-10-12T09:24:28.903Z,80.10
2022-10-12T09:27:01.656Z,79.70
2022-10-12T09:29:32.563Z,79.60
2022-10-12T09:32:29.449Z,79.30
2022-10-12T09:34:58.089Z,78.40
2022-10-12T09:37:31.489Z,77.90
2022-10-12T09:40:00.231Z,76.00
2022-10-12T09:42:28.772Z,75.90
2022-10-12T09:45:03.306Z,76.10
2022-10-12T09:47:34.836Z,75.40
2022-10-12T09:50:07.085Z,75.00
2022-10-12T09:52:44.604Z,74.10
2022-10-12T09:58:02.738Z,74.60
2022-10-12T10:00:34.044Z,73.80
2022-10-12T10:03:04.729Z,73.60
2022-10-12T10:05:35.019Z,73.90
2022-10-12T10:08:21.151Z,73.10
2022-10-12T10:10:52.020Z,72.80
2022-10-12T10:13:21.890Z,71.80
2022-10-12T10:15:53.667Z,72.50
2022-10-12T10:18:30.655Z,71.40
2022-10-12T10:21:01.728Z,71.60
2022-10-12T10:23:31.476Z,70.60
2022-10-12T10:26:04.878Z,70.80
2022-10-12T10:28:35.588Z,69.30
2022-10-12T10:31:06.409Z,68.70
2022-10-12T10:33:37.686Z,69.50
2022-10-12T10:36:13.448Z,68.60
2022-10-12T10:38:56.646Z,68.40
2022-10-12T10:41:28.914Z,68.50
2022-10-12T10:43:57.308Z,67.70
2022-10-12T10:46:28.360Z,68.20
2022-10-12T10:49:01.886Z,66.70
2022-10-12T10:51:46.591Z,66.90
2022-10-12T10:54:17.431Z,67.00
2022-10-12T10:56:47.695Z,66.90
2022-10-12T10:59:25.823Z,65.80
2022-10-12T11:01:57.748Z,66.10
2022-10-12T11:04:32.256Z,66.70
2022-10-12T11:07:05.147Z,66.00
2022-10-12T11:09:42.764Z,66.10
2022-10-12T11:12:18.670Z,65.10
2022-10-12T11:14:50.359Z,65.10
2022-10-12T11:17:23.860Z,63.60
2022-10-12T11:20:02.224Z,64.60
2022-10-12T11:22:36.924Z,63.80
2022-10-12T11:25:15.801Z,65.10
2022-10-12T11:27:46.070Z,65.50
2022-10-12T11:30:21.409Z,63.30
2022-10-12T11:32:55.964Z,62.80
2022-10-12T11:35:30.562Z,64.60
2022-10-12T11:38:03.089Z,62.10
2022-10-12T11:41:31.018Z,61.90
2022-10-12T11:43:33.092Z,62.10
2022-10-12T11:46:07.239Z,60.10
2022-10-12T11:48:42.626Z,60.30
2022-10-12T11:51:13.580Z,60.20
2022-10-12T11:53:53.580Z,61.00
2022-10-12T11:56:26.433Z,61.00
2022-10-12T11:59:01.702Z,61.40
2022-10-12T12:02:04.948Z,62.30
2022-10-12T12:04:48.089Z,61.50
2022-10-12T12:07:56.776Z,60.30
2022-10-12T12:10:55.670Z,59.60
2022-10-12T12:13:27.737Z,59.00
2022-10-12T12:16:33.110Z,57.70
2022-10-12T12:19:33.952Z,58.40
2022-10-12T12:22:24.606Z,59.50
2022-10-12T12:25:17.390Z,59.40
2022-10-12T12:27:49.975Z,60.50
2022-10-12T12:30:33.575Z,58.50
2022-10-12T12:33:04.797Z,59.20
2022-10-12T12:35:38.950Z,59.50
2022-10-12T12:38:25.867Z,59.80
2022-10-12T12:41:05.940Z,57.70
2022-10-12T12:43:54.164Z,59.30
2022-10-12T12:46:23.862Z,59.10
2022-10-12T12:49:07.361Z,58.50
2022-10-12T12:51:42.705Z,57.50
2022-10-12T12:54:22.264Z,59.00
2022-10-12T12:57:35.485Z,59.00
2022-10-12T13:00:18.492Z,60.80
2022-10-12T13:03:29.355Z,59.40
2022-10-12T13:07:03.959Z,60.20
2022-10-12T13:10:00.115Z,60.10
2022-10-12T13:12:58.643Z,60.30
2022-10-12T13:15:53.548Z,61.30
2022-10-12T13:18:53.452Z,61.60
2022-10-12T13:21:25.752Z,62.60
2022-10-12T13:24:04.929Z,62.70
2022-10-12T13:26:36.531Z,63.00
2022-10-12T13:29:18.018Z,63.20
2022-10-12T13:31:50.137Z,63.00
2022-10-12T13:34:23.079Z,63.40
2022-10-12T13:36:58.912Z,64.40
2022-10-12T13:39:28.230Z,63.90
2022-10-12T13:42:01.243Z,63.80
2022-10-12T13:44:34.580Z,64.60
2022-10-12T13:47:10.145Z,64.90
2022-10-12T13:49:44.375Z,64.70
2022-10-12T13:52:21.815Z,64.50
2022-10-12T13:54:52.064Z,64.30
2022-10-12T13:57:26.115Z,64.90
2022-10-12T14:00:02.299Z,64.60
2022-10-12T14:02:32.742Z,65.00
2022-10-12T14:05:05.359Z,63.00
2022-10-12T14:07:36.780Z,63.10
2022-10-12T14:10:09.770Z,64.30
2022-10-12T14:12:38.554Z,63.40
2022-10-12T14:15:09.552Z,62.90
2022-10-12T14:17:45.785Z,62.50
2022-10-12T14:20:26.143Z,62.60
2022-10-12T14:22:54.672Z,64.40
2022-10-12T14:25:25.345Z,63.10
2022-10-12T14:27:58.253Z,63.20
2022-10-12T14:30:31.463Z,61.30
2022-10-12T14:33:16.241Z,61.00
2022-10-12T14:35:47.962Z,61.70
2022-10-12T14:38:40.919Z,62.30
2022-10-12T14:41:39.536Z,62.10
2022-10-12T14:44:13.392Z,62.20
2022-10-12T14:46:47.223Z,61.90
2022-10-12T14:49:19.652Z,62.40
2022-10-12T14:51:48.814Z,64.10
2022-10-12T14:54:17.221Z,63.00
2022-10-12T14:56:45.457Z,62.90
2022-10-12T14:59:13.805Z,63.80
2022-10-12T15:01:47.471Z,63.80
2022-10-12T15:04:19.451Z,63.40
2022-10-12T15:06:50.942Z,63.80
2022-10-12T15:09:19.491Z,64.60
2022-10-12T15:11:47.707Z,63.80
2022-10-12T15:14:15.920Z,64.40
2022-10-12T15:16:45.607Z,63.90
2022-10-12T15:19:13.891Z,64.80
2022-10-12T15:21:42.164Z,64.90
2022-10-12T15:24:16.316Z,64.80
2022-10-12T15:26:44.540Z,65.90
2022-10-12T15:29:12.831Z,65.90
2022-10-12T15:31:41.111Z,65.60
2022-10-12T15:34:14.916Z,66.10
2022-10-12T15:36:43.640Z,66.80
2022-10-12T15:39:12.163Z,67.00
2022-10-12T15:41:40.437Z,67.10
2022-10-12T15:44:11.019Z,67.30
2022-10-12T15:46:39.491Z,67.00
2022-10-12T15:49:07.965Z,66.70
2022-10-12T15:51:42.092Z,66.60
2022-10-12T15:54:11.422Z,67.00
2022-10-12T15:56:39.694Z,67.10
2022-10-12T15:59:08.400Z,67.20
2022-10-12T16:01:38.651Z,67.40
2022-10-12T16:04:07.931Z,67.80
2022-10-12T16:06:37.866Z,68.50
2022-10-12T16:09:06.121Z,68.90
2022-10-12T16:11:34.413Z,69.70
2022-10-12T16:14:02.891Z,71.70
2022-10-12T16:16:32.332Z,70.90
2022-10-12T16:19:00.650Z,70.80
2022-10-12T16:21:29.328Z,70.30
2022-10-12T16:23:58.969Z,71.50
2022-10-12T16:26:27.364Z,72.40
2022-10-12T16:28:55.734Z,72.30
2022-10-12T16:31:24.128Z,72.70
2022-10-12T16:33:52.388Z,73.00
2022-10-12T16:36:20.785Z,73.00
2022-10-12T16:38:49.153Z,73.50
2022-10-12T16:41:19.409Z,74.20
2022-10-12T16:43:47.711Z,73.90
2022-10-12T16:46:15.940Z,74.10
2022-10-12T16:48:44.564Z,75.30
2022-10-12T16:51:14.723Z,74.20
2022-10-12T16:53:43.967Z,74.80
2022-10-12T16:56:12.315Z,75.20
2022-10-12T16:58:42.033Z,75.70
2022-10-12T17:01:11.612Z,76.20
2022-10-12T17:03:40.434Z,76.70
2022-10-12T17:06:09.551Z,77.10
2022-10-12T17:08:39.617Z,77.20
2022-10-12T17:11:09.580Z,77.60
2022-10-12T17:13:39.069Z,77.80
2022-10-12T17:16:24.480Z,77.80
2022-10-12T17:18:58.182Z,78.00
2022-10-12T17:21:27.973Z,78.20
2022-10-12T17:23:58.288Z,78.60
2022-10-12T17:26:27.209Z,78.10
2022-10-12T17:28:55.927Z,78.50
2022-10-12T17:31:26.047Z,78.30
2022-10-12T17:33:54.294Z,78.00
2022-10-12T17:36:27.843Z,79.20
2022-10-12T17:38:58.285Z,79.20
2022-10-12T17:41:27.624Z,79.40
2022-10-12T17:43:56.103Z,79.10
2022-10-12T17:46:25.743Z,79.10
2022-10-12T17:48:54.035Z,80.20
2022-10-12T17:51:22.330Z,80.00
2022-10-12T17:53:50.622Z,79.80
2022-10-12T17:56:18.985Z,80.30
2022-10-12T17:58:47.234Z,80.20
2022-10-12T18:01:17.469Z,81.20
2022-10-12T18:03:47.962Z,81.20
2022-10-12T18:06:20.486Z,81.00
2022-10-12T18:08:49.171Z,80.30
2022-10-12T18:11:19.358Z,80.60
2022-10-12T18:13:49.762Z,81.80
2022-10-12T18:16:21.161Z,82.30
2022-10-12T18:18:52.731Z,82.70
2022-10-12T18:21:23.468Z,82.50
2022-10-12T18:23:52.582Z,82.70
2022-10-12T18:26:22.268Z,82.90
2022-10-12T18:28:52.594Z,82.60
2022-10-12T18:31:23.067Z,83.00
2022-10-12T18:33:53.022Z,82.60
2022-10-12T18:36:22.940Z,82.80
2022-10-12T18:38:51.686Z,83.20
2022-10-12T18:41:23.543Z,83.10
2022-10-12T18:43:57.699Z,82.50
2022-10-12T18:46:28.593Z,83.50
2022-10-12T18:48:58.812Z,83.10
2022-10-12T18:51:29.678Z,83.60
2022-10-12T18:53:59.004Z,83.90
2022-10-12T18:56:28.045Z,84.00
2022-10-12T18:58:57.793Z,83.30
2022-10-12T19:01:28.522Z,83.20
2022-10-12T19:04:00.656Z,82.60
2022-10-12T19:06:32.573Z,83.40
2022-10-12T19:09:01.938Z,83.60
2022-10-12T19:11:31.229Z,83.60
2022-10-12T19:14:05.308Z,83.80
2022-10-12T19:16:34.755Z,83.50
2022-10-12T19:19:07.515Z,84.00
2022-10-12T19:21:36.086Z,83.90
2022-10-12T19:24:05.897Z,83.60
2022-10-12T19:26:34.905Z,83.50
2022-10-12T19:29:03.859Z,83.80
2022-10-12T19:31:34.687Z,83.60
2022-10-12T19:34:08.470Z,83.50
2022-10-12T19:36:39.875Z,83.80
2022-10-12T19:39:10.863Z,83.50
2022-10-12T19:41:39.189Z,83.50
2022-10-12T19:44:07.904Z,83.50
2022-10-12T19:46:36.188Z,83.60
2022-10-12T19:49:05.833Z,83.00
2022-10-12T19:51:34.230Z,83.10
2022-10-12T19:54:05.142Z,83.30
2022-10-12T19:56:33.991Z,83.20
2022-10-12T19:59:02.341Z,83.30
2022-10-12T20:01:33.377Z,83.80
2022-10-12T20:04:02.134Z,82.90
2022-10-12T20:06:31.856Z,82.50
2022-10-12T20:09:02.211Z,83.00
2022-10-12T20:11:30.997Z,83.30
2022-10-12T20:13:59.639Z,83.80
2022-10-12T20:16:31.203Z,84.10
2022-10-12T20:19:03.195Z,84.00
2022-10-12T20:21:33.040Z,84.10
2022-10-12T20:24:01.265Z,84.30
2022-10-12T20:26:29.900Z,84.40
2022-10-12T20:28:58.247Z,84.10
2022-10-12T20:31:28.014Z,84.20
2022-10-12T20:33:58.804Z,84.10
2022-10-12T20:36:29.831Z,84.40
2022-10-12T20:39:00.810Z,84.80
2022-10-12T20:41:29.470Z,85.30
2022-10-12T20:43:58.814Z,85.40
2022-10-12T20:46:28.436Z,85.70
2022-10-12T20:48:59.276Z,85.80
2022-10-12T20:51:30.333Z,85.90
2022-10-12T20:54:01.426Z,85.90
2022-10-12T20:56:30.330Z,86.00
2022-10-12T20:58:59.037Z,85.60
2022-10-12T21:01:28.424Z,84.60
2022-10-12T21:03:57.186Z,84.50
2022-10-12T21:06:25.984Z,84.60
2022-10-12T21:08:56.579Z,84.80
2022-10-12T21:11:26.824Z,85.50
2022-10-12T21:13:56.125Z,85.40
2022-10-12T21:16:24.934Z,85.60
2022-10-12T21:18:55.960Z,85.70
2022-10-12T21:21:25.158Z,86.20
2022-10-12T21:23:55.624Z,86.60
2022-10-12T21:26:28.199Z,86.60
2022-10-12T21:28:56.585Z,86.40
2022-10-12T21:31:29.462Z,86.70
2022-10-12T21:34:01.407Z,86.40
2022-10-12T21:36:31.369Z,86.20
2022-10-12T21:38:59.990Z,86.40
2022-10-12T21:41:31.467Z,86.50
2022-10-12T21:43:59.761Z,86.30
2022-10-12T21:46:31.634Z,86.40
2022-10-12T21:49:01.381Z,86.80
2022-10-12T21:51:32.377Z,87.20
2022-10-12T21:54:00.775Z,87.00
2022-10-12T21:56:33.355Z,87.10
2022-10-12T21:59:03.053Z,87.40
2022-10-12T22:01:34.719Z,87.50
2022-10-12T22:04:05.881Z,87.50
2022-10-12T22:06:34.783Z,87.70
2022-10-12T22:09:06.382Z,87.80
2022-10-12T22:11:38.313Z,87.80
2022-10-12T22:14:09.216Z,87.80
2022-10-12T22:16:37.992Z,87.70
2022-10-12T22:19:10.854Z,87.60
2022-10-12T22:21:39.075Z,87.50
2022-10-12T22:24:08.014Z,87.40
2022-10-12T22:26:37.736Z,87.50
2022-10-12T22:29:07.562Z,87.70
2022-10-12T22:31:37.292Z,88.10
2022-10-12T22:34:05.951Z,88.10
2022-10-12T22:36:34.990Z,88.20
2022-10-12T22:39:04.005Z,88.10
2022-10-12T22:41:32.268Z,88.10
2022-10-12T22:44:01.889Z,88.40
2022-10-12T22:46:30.303Z,88.60
2022-10-12T22:48:58.597Z,88.30
2022-10-12T22:51:32.149Z,88.40
2022-10-12T22:54:02.202Z,88.40
2022-10-12T22:56:30.758Z,88.50
2022-10-12T22:59:02.912Z,88.50
2022-10-12T23:01:31.348Z,88.60
2022-10-12T23:03:59.590Z,88.20
2022-10-12T23:06:28.169Z,88.10
2022-10-12T23:08:56.483Z,88.20
2022-10-12T23:11:27.105Z,88.20
2022-10-12T23:13:56.760Z,88.20
2022-10-12T23:16:28.783Z,88.00
2022-10-12T23:18:59.670Z,88.00
2022-10-12T23:21:29.094Z,87.80
2022-10-12T23:23:58.699Z,87.70
2022-10-12T23:26:28.336Z,87.80
2022-10-12T23:28:57.753Z,88.80
2022-10-12T23:31:30.572Z,88.90
2022-10-12T23:34:00.951Z,88.80
2022-10-12T23:36:29.436Z,89.10
2022-10-12T23:39:00.821Z,88.90
2022-10-12T23:41:29.244Z,88.90
2022-10-12T23:43:57.472Z,88.70
2022-10-12T23:46:27.271Z,89.00
2022-10-12T23:48:55.531Z,89.10
2022-10-12T23:51:23.758Z,89.20
2022-10-12T23:53:52.029Z,88.80
2022-10-12T23:56:20.230Z,88.60
2022-10-12T23:58:48.736Z,88.80
